KLRO

Mt Pleasant Regional-Faison Field Airport

Mount Pleasant, South Carolina, USA
METAR KLRO 191455Z AUTO 23008KT 020V020 10SM CLR 28/24 A3004 RMK AO2
Observed Flight Rules
Aug-19 @ 14:55 UTC (44 minutes ago) Visual Flight Rules
Wind Visibility Clouds
230° at 8 knots 10 miles
  • Clear skies
Temperatures Readings
Current 28°C / 82°F
Dewpoint 24°C / 75°F
Humidity 79%
Altimeter 30.04" Hg
Pressure 1017 hPa
Elevation 4
METAR KLRO 191455Z AUTO 23008KT 020V020 10SM CLR 28/24 A3004 RMK AO2
Observed Flight Rules
Aug-19 @ 14:55 UTC
(44 minutes ago)
VFR
Wind Visibility
230° at 8 knots 10 miles
Clouds
  • Clear skies
Temperature Dewpoint
28°C / 82°F 24°C / 75°F
Humidity Altimeter Pressure
79% 30.04" Hg 1017 hPa